Time;durP1;ratioP1;P1;durP2;ratioP2;P2;SDS_P1;SDS_P2;PMS_P1;PMS_P2;Temp;Humidity;BMP_temperature;BMP_pressure;BME280_temperature;BME280_humidity;BME280_pressure;Samples;Min_cycle;Max_cycle;Signal;HPM_P1;HPM_P2
2022/12/27 00:02:08;;;;;;;;;;;;;;;;;;8449841;27;27970;-76
2022/12/27 00:06:09;;;;;;;;;;;;;;;;;;8436928;27;28772;-76
2022/12/27 00:10:09;;;;;;;;;;;;;;;;;;8428760;27;29457;-76
2022/12/27 00:14:09;;;;;;;;;;;;;;;;;;8445813;27;27565;-76
2022/12/27 00:18:09;;;;;;;;;;;;;;;;;;8453313;27;27198;-76
2022/12/27 00:22:09;;;;;;;;;;;;;;;;;;8432366;27;28778;-76
2022/12/27 00:26:09;;;;;;;;;;;;;;;;;;8444818;27;28125;-75
2022/12/27 00:30:09;;;;;;;;;;;;;;;;;;8432228;27;28504;-75
2022/12/27 00:34:09;;;;;;;;;;;;;;;;;;8437957;27;28574;-76
2022/12/27 00:38:09;;;;;;;;;;;;;;;;;;8451938;27;27902;-75
2022/12/27 00:42:09;;;;;;;;;;;;;;;;;;8427009;27;28520;-77
2022/12/27 00:46:09;;;;;;;;;;;;;;;;;;8430943;27;29068;-76
2022/12/27 00:50:10;;;;;;;;;;;;;;;;;;8448290;27;28017;-76
2022/12/27 00:54:10;;;;;;;;;;;;;;;;;;8453522;27;27960;-77
2022/12/27 00:58:10;;;;;;;;;;;;;;;;;;8453852;27;27639;-76
2022/12/27 01:02:10;;;;;;;;;;;;;;;;;;8433695;27;28537;-76
2022/12/27 01:06:10;;;;;;;;;;;;;;;;;;8438154;27;28434;-76
2022/12/27 01:10:10;;;;;;;;;;;;;;;;;;8435473;27;28757;-75
2022/12/27 01:14:10;;;;;;;;;;;;;;;;;;8452639;27;27907;-76
2022/12/27 01:18:10;;;;;;;;;;;;;;;;;;8434704;27;29362;-76
2022/12/27 01:22:10;;;;;;;;;;;;;;;;;;8459821;27;27434;-77
2022/12/27 01:26:10;;;;;;;;;;;;;;;;;;8451533;27;28878;-76
2022/12/27 01:30:11;;;;;;;;;;;;;;;;;;8456002;27;27702;-77
2022/12/27 01:34:11;;;;;;;;;;;;;;;;;;8451252;27;27374;-76
2022/12/27 01:38:11;;;;;;;;;;;;;;;;;;8455313;27;27355;-77
2022/12/27 01:46:30;;;;;;;;;;;;;;;;;;8456008;27;27502;-76
2022/12/27 01:50:30;;;;;;;;;;;;;;;;;;8437807;27;29455;-77
2022/12/27 01:54:30;;;;;;;;;;;;;;;;;;8457535;27;27685;-77
2022/12/27 01:58:30;;;;;;;;;;;;;;;;;;8439214;27;29551;-76
2022/12/27 02:02:30;;;;;;;;;;;;;;;;;;8436346;27;28478;-75
2022/12/27 02:06:31;;;;;;;;;;;;;;;;;;8458545;27;27597;-75
2022/12/27 02:10:31;;;;;;;;;;;;;;;;;;8453570;27;27474;-74
2022/12/27 02:14:31;;;;;;;;;;;;;;;;;;8436305;27;28868;-76
2022/12/27 02:18:31;;;;;;;;;;;;;;;;;;8453869;27;27323;-74
2022/12/27 02:22:31;;;;;;;;;;;;;;;;;;8438573;27;28451;-76
2022/12/27 02:26:31;;;;;;;;;;;;;;;;;;8451179;27;27247;-75
2022/12/27 02:30:31;;;;;;;;;;;;;;;;;;8456028;27;28109;-76
2022/12/27 02:34:33;;;;;;;;;;;;;;;;;;8453998;27;29557;-76
2022/12/27 02:38:33;;;;;;;;;;;;;;;;;;8432796;27;29183;-76
2022/12/27 02:55:30;;;;;;;;;;;;;;;;;;8454424;27;27298;-74
2022/12/27 02:59:30;;;;;;;;;;;;;;;;;;8452001;27;27455;-76
2022/12/27 03:03:30;;;;;;;;;;;;;;;;;;8452038;27;27818;-76
2022/12/27 03:07:30;;;;;;;;;;;;;;;;;;8456547;27;27639;-77
2022/12/27 03:15:55;;;;;;;;;;;;;;;;;;8452346;27;27924;-76
2022/12/27 03:50:08;;;;;;;;;;;;;;;;;;8447102;27;28169;-77
2022/12/27 03:54:08;;;;;;;;;;;;;;;;;;8452455;27;27392;-76
2022/12/27 03:58:08;;;;;;;;;;;;;;;;;;8452859;27;28671;-77
2022/12/27 04:02:10;;;;;;;;;;;;;;;;;;8434799;27;47237;-76
2022/12/27 04:06:10;;;;;;;;;;;;;;;;;;8431996;27;28898;-75
2022/12/27 04:36:04;;;;;;;;;;;;;;;;;;8452412;27;27403;-75
2022/12/27 04:57:19;;;;;;;;;;;;;;;;;;8456321;27;27382;-77
2022/12/27 05:05:38;;;;;;;;;;;;;;;;;;8445676;27;27291;-77
2022/12/27 05:14:00;;;;;;;;;;;;;;;;;;8444867;27;27799;-76
2022/12/27 05:18:00;;;;;;;;;;;;;;;;;;8453430;27;27393;-75
2022/12/27 05:26:19;;;;;;;;;;;;;;;;;;8446040;27;27654;-76
2022/12/27 05:30:20;;;;;;;;;;;;;;;;;;8450175;27;28178;-76
2022/12/27 05:34:20;;;;;;;;;;;;;;;;;;8446713;27;27863;-76
2022/12/27 05:38:20;;;;;;;;;;;;;;;;;;8450098;27;27705;-75
2022/12/27 05:42:20;;;;;;;;;;;;;;;;;;8436906;27;28586;-76
2022/12/27 05:46:20;;;;;;;;;;;;;;;;;;8437195;27;29069;-76
2022/12/27 05:50:20;;;;;;;;;;;;;;;;;;8456928;27;27812;-75
2022/12/27 05:54:20;;;;;;;;;;;;;;;;;;8439680;27;28478;-76
2022/12/27 05:58:20;;;;;;;;;;;;;;;;;;8455609;27;27448;-76
2022/12/27 06:02:20;;;;;;;;;;;;;;;;;;8458644;27;27531;-76
2022/12/27 06:06:20;;;;;;;;;;;;;;;;;;8452869;27;27686;-76
2022/12/27 06:10:20;;;;;;;;;;;;;;;;;;8433705;27;28561;-76
2022/12/27 06:14:21;;;;;;;;;;;;;;;;;;8436520;27;29565;-77
2022/12/27 06:18:21;;;;;;;;;;;;;;;;;;8452751;27;27296;-75
2022/12/27 06:22:21;;;;;;;;;;;;;;;;;;8456762;27;27820;-75
2022/12/27 06:26:21;;;;;;;;;;;;;;;;;;8456344;27;27380;-76
2022/12/27 06:30:21;;;;;;;;;;;;;;;;;;8438435;27;28797;-75
2022/12/27 06:34:21;;;;;;;;;;;;;;;;;;8456413;27;27153;-76
2022/12/27 06:38:21;;;;;;;;;;;;;;;;;;8430503;27;28432;-75
2022/12/27 06:42:21;;;;;;;;;;;;;;;;;;8433351;27;28456;-76
2022/12/27 06:46:25;;;;;;;;;;;;;;;;;;8457075;27;27516;-76
2022/12/27 06:50:25;;;;;;;;;;;;;;;;;;8435489;27;28591;-75
2022/12/27 06:54:25;;;;;;;;;;;;;;;;;;8434662;27;28769;-76
2022/12/27 06:58:25;;;;;;;;;;;;;;;;;;8452032;27;27483;-76
2022/12/27 07:02:25;;;;;;;;;;;;;;;;;;8461223;27;27484;-76
2022/12/27 07:06:25;;;;;;;;;;;;;;;;;;8457402;27;27751;-76
2022/12/27 07:10:25;;;;;;;;;;;;;;;;;;8457479;27;27694;-77
2022/12/27 07:14:25;;;;;;;;;;;;;;;;;;8457546;27;27316;-75
2022/12/27 07:18:25;;;;;;;;;;;;;;;;;;8432141;27;28938;-76
2022/12/27 07:22:25;;;;;;;;;;;;;;;;;;8436738;27;28496;-76
2022/12/27 07:26:27;;;;;;;;;;;;;;;;;;8454051;27;27565;-76
2022/12/27 07:30:28;;;;;;;;;;;;;;;;;;8441953;27;30812;-76
2022/12/27 07:34:28;;;;;;;;;;;;;;;;;;8457467;27;27598;-74
2022/12/27 07:38:28;;;;;;;;;;;;;;;;;;8430102;27;29162;-75
2022/12/27 07:42:28;;;;;;;;;;;;;;;;;;8457315;27;27901;-75
2022/12/27 07:46:28;;;;;;;;;;;;;;;;;;8457049;27;27097;-74
2022/12/27 07:50:28;;;;;;;;;;;;;;;;;;8440883;27;29776;-74
2022/12/27 07:54:28;;;;;;;;;;;;;;;;;;8438948;27;28860;-73
2022/12/27 07:58:28;;;;;;;;;;;;;;;;;;8458080;27;27314;-74
2022/12/27 08:02:29;;;;;;;;;;;;;;;;;;8440803;27;29890;-74
2022/12/27 08:06:29;;;;;;;;;;;;;;;;;;8458664;27;27791;-76
2022/12/27 08:10:29;;;;;;;;;;;;;;;;;;8437916;27;28329;-73
2022/12/27 08:14:29;;;;;;;;;;;;;;;;;;8453572;27;28264;-76
2022/12/27 08:18:29;;;;;;;;;;;;;;;;;;8431243;27;29999;-74
2022/12/27 08:22:29;;;;;;;;;;;;;;;;;;8449508;27;29447;-76
2022/12/27 08:26:29;;;;;;;;;;;;;;;;;;8447722;27;27297;-76
2022/12/27 08:30:29;;;;;;;;;;;;;;;;;;8452793;27;28493;-76
2022/12/27 08:34:29;;;;;;;;;;;;;;;;;;8431116;27;28531;-76
2022/12/27 08:38:29;;;;;;;;;;;;;;;;;;8444375;27;28988;-76
2022/12/27 08:42:30;;;;;;;;;;;;;;;;;;8448293;27;27222;-76
2022/12/27 08:46:30;;;;;;;;;;;;;;;;;;8452339;27;27417;-76
2022/12/27 08:50:30;;;;;;;;;;;;;;;;;;8431298;27;28556;-76
2022/12/27 08:54:30;;;;;;;;;;;;;;;;;;8430003;27;29180;-76
2022/12/27 08:58:30;;;;;;;;;;;;;;;;;;8451648;27;27423;-76
2022/12/27 09:02:30;;;;;;;;;;;;;;;;;;8447639;27;27660;-76
2022/12/27 09:06:30;;;;;;;;;;;;;;;;;;8434132;27;28171;-77
2022/12/27 09:10:30;;;;;;;;;;;;;;;;;;8437578;27;28881;-76
2022/12/27 09:14:30;;;;;;;;;;;;;;;;;;8438033;27;28347;-76
2022/12/27 09:18:30;;;;;;;;;;;;;;;;;;8457250;27;27523;-76
2022/12/27 09:22:31;;;;;;;;;;;;;;;;;;8440298;27;28767;-75
2022/12/27 09:26:31;;;;;;;;;;;;;;;;;;8456365;27;27266;-76
2022/12/27 09:30:31;;;;;;;;;;;;;;;;;;8453112;27;28555;-76
2022/12/27 09:34:31;;;;;;;;;;;;;;;;;;8455738;27;27375;-76
2022/12/27 09:38:31;;;;;;;;;;;;;;;;;;8434135;27;28547;-75
2022/12/27 09:42:31;;;;;;;;;;;;;;;;;;8442178;27;28627;-76
2022/12/27 09:46:31;;;;;;;;;;;;;;;;;;8459275;27;27431;-75
2022/12/27 09:50:31;;;;;;;;;;;;;;;;;;8461214;27;27210;-76
2022/12/27 09:54:31;;;;;;;;;;;;;;;;;;8458200;27;27688;-77
2022/12/27 09:58:31;;;;;;;;;;;;;;;;;;8438107;27;28653;-76
2022/12/27 10:02:31;;;;;;;;;;;;;;;;;;8432790;27;30166;-76
2022/12/27 10:06:31;;;;;;;;;;;;;;;;;;8439300;27;28550;-77
2022/12/27 10:10:32;;;;;;;;;;;;;;;;;;8430992;27;28743;-75
2022/12/27 10:14:32;;;;;;;;;;;;;;;;;;8432577;27;28601;-76
2022/12/27 10:18:32;;;;;;;;;;;;;;;;;;8450052;27;27553;-76
2022/12/27 10:22:32;;;;;;;;;;;;;;;;;;8446734;27;28196;-75
2022/12/27 10:26:32;;;;;;;;;;;;;;;;;;8436774;27;28663;-76
2022/12/27 10:30:32;;;;;;;;;;;;;;;;;;8453220;27;27435;-76
2022/12/27 10:34:32;;;;;;;;;;;;;;;;;;8433646;27;28740;-77
2022/12/27 10:38:32;;;;;;;;;;;;;;;;;;8441346;27;28699;-76
2022/12/27 10:42:33;;;;;;;;;;;;;;;;;;8449750;27;27745;-76
2022/12/27 10:46:33;;;;;;;;;;;;;;;;;;8455105;27;27155;-76
2022/12/27 10:50:33;;;;;;;;;;;;;;;;;;8452485;27;28583;-75
2022/12/27 10:54:33;;;;;;;;;;;;;;;;;;8449905;27;27170;-76
2022/12/27 10:58:33;;;;;;;;;;;;;;;;;;8447805;27;27445;-76
2022/12/27 11:02:33;;;;;;;;;;;;;;;;;;8449158;27;27643;-76
2022/12/27 11:06:33;;;;;;;;;;;;;;;;;;8432328;27;29647;-76
2022/12/27 11:10:33;;;;;;;;;;;;;;;;;;8454184;27;27485;-76
2022/12/27 11:14:36;;;;;;;;;;;;;;;;;;8450964;27;28697;-76
2022/12/27 11:18:36;;;;;;;;;;;;;;;;;;8451923;27;28101;-76
2022/12/27 11:22:36;;;;;;;;;;;;;;;;;;8432185;27;28176;-76
2022/12/27 11:26:36;;;;;;;;;;;;;;;;;;8453605;27;27252;-76
2022/12/27 11:30:36;;;;;;;;;;;;;;;;;;8430822;27;28495;-74
2022/12/27 11:34:36;;;;;;;;;;;;;;;;;;8449352;27;27318;-75
2022/12/27 11:38:36;;;;;;;;;;;;;;;;;;8443815;27;28446;-76
2022/12/27 11:42:39;;;;;;;;;;;;;;;;;;8428591;27;28578;-76
2022/12/27 11:46:40;;;;;;;;;;;;;;;;;;8451973;27;27983;-73
2022/12/27 11:50:40;;;;;;;;;;;;;;;;;;8448531;27;27805;-76
2022/12/27 11:54:41;;;;;;;;;;;;;;;;;;8452550;27;27481;-74
2022/12/27 11:58:41;;;;;;;;;;;;;;;;;;8430866;27;30261;-76
2022/12/27 12:02:41;;;;;;;;;;;;;;;;;;8453292;27;27478;-76
2022/12/27 12:06:41;;;;;;;;;;;;;;;;;;8435302;27;28404;-76
2022/12/27 12:10:41;;;;;;;;;;;;;;;;;;8450229;27;27394;-74
2022/12/27 12:14:41;;;;;;;;;;;;;;;;;;8454433;27;27256;-75
2022/12/27 12:18:42;;;;;;;;;;;;;;;;;;8448837;27;27459;-73
2022/12/27 12:22:42;;;;;;;;;;;;;;;;;;8427885;27;28401;-73
2022/12/27 12:26:42;;;;;;;;;;;;;;;;;;8447049;27;27455;-74
2022/12/27 12:30:42;;;;;;;;;;;;;;;;;;8430491;27;28837;-74
2022/12/27 12:34:42;;;;;;;;;;;;;;;;;;8432707;27;28530;-76
2022/12/27 12:38:42;;;;;;;;;;;;;;;;;;8432809;27;28797;-76
2022/12/27 12:42:42;;;;;;;;;;;;;;;;;;8454285;27;27566;-76
2022/12/27 12:46:42;;;;;;;;;;;;;;;;;;8453945;27;27293;-76
2022/12/27 12:50:42;;;;;;;;;;;;;;;;;;8441450;27;28894;-75
2022/12/27 12:54:42;;;;;;;;;;;;;;;;;;8440597;27;28300;-76
2022/12/27 12:58:43;;;;;;;;;;;;;;;;;;8455511;27;27535;-75
2022/12/27 13:02:43;;;;;;;;;;;;;;;;;;8447245;27;27611;-76
2022/12/27 13:06:43;;;;;;;;;;;;;;;;;;8436319;27;29009;-76
2022/12/27 13:10:43;;;;;;;;;;;;;;;;;;8448704;27;28690;-76
2022/12/27 13:14:44;;;;;;;;;;;;;;;;;;8432137;27;29757;-75
2022/12/27 13:18:44;;;;;;;;;;;;;;;;;;8434048;27;28577;-76
2022/12/27 13:22:44;;;;;;;;;;;;;;;;;;8454258;27;27617;-76
2022/12/27 13:26:44;;;;;;;;;;;;;;;;;;8449599;27;28425;-76
2022/12/27 13:30:44;;;;;;;;;;;;;;;;;;8435106;27;27752;-76
2022/12/27 13:34:45;;;;;;;;;;;;;;;;;;8432820;27;28450;-75
2022/12/27 13:38:45;;;;;;;;;;;;;;;;;;8450056;27;27718;-76
2022/12/27 13:42:45;;;;;;;;;;;;;;;;;;8447816;27;27503;-76
2022/12/27 13:46:45;;;;;;;;;;;;;;;;;;8428869;27;28122;-76
2022/12/27 13:50:45;;;;;;;;;;;;;;;;;;8433266;27;28538;-75
2022/12/27 13:54:45;;;;;;;;;;;;;;;;;;8437956;27;28584;-76
2022/12/27 13:58:45;;;;;;;;;;;;;;;;;;8453652;27;27322;-76
2022/12/27 14:02:45;;;;;;;;;;;;;;;;;;8455630;27;27335;-76
2022/12/27 14:06:45;;;;;;;;;;;;;;;;;;8453818;27;27887;-77
2022/12/27 14:10:45;;;;;;;;;;;;;;;;;;8437581;27;28761;-77
2022/12/27 14:14:45;;;;;;;;;;;;;;;;;;8445624;27;28059;-76
2022/12/27 14:18:45;;;;;;;;;;;;;;;;;;8427847;27;28778;-77
2022/12/27 14:22:45;;;;;;;;;;;;;;;;;;8448810;27;28332;-75
2022/12/27 14:26:48;;;;;;;;;;;;;;;;;;8430469;27;29548;-76
2022/12/27 14:30:48;;;;;;;;;;;;;;;;;;8429356;27;27478;-74
2022/12/27 14:34:48;;;;;;;;;;;;;;;;;;8430067;27;28425;-74
2022/12/27 14:38:48;;;;;;;;;;;;;;;;;;8445689;27;28291;-74
2022/12/27 14:42:48;;;;;;;;;;;;;;;;;;8451755;27;27442;-74
2022/12/27 14:46:48;;;;;;;;;;;;;;;;;;8436772;27;28223;-74
2022/12/27 14:50:49;;;;;;;;;;;;;;;;;;8437060;27;29457;-74
2022/12/27 14:54:49;;;;;;;;;;;;;;;;;;8436432;27;30744;-78
2022/12/27 14:58:49;;;;;;;;;;;;;;;;;;8432467;27;28758;-76
2022/12/27 15:02:49;;;;;;;;;;;;;;;;;;8458220;27;27315;-77
2022/12/27 15:06:49;;;;;;;;;;;;;;;;;;8453459;27;27697;-76
2022/12/27 15:10:49;;;;;;;;;;;;;;;;;;8447636;27;28302;-77
2022/12/27 15:14:49;;;;;;;;;;;;;;;;;;8428441;27;29857;-77
2022/12/27 15:18:49;;;;;;;;;;;;;;;;;;8433871;27;28630;-76
2022/12/27 15:22:49;;;;;;;;;;;;;;;;;;8451213;27;27536;-76
2022/12/27 15:26:49;;;;;;;;;;;;;;;;;;8455865;27;28920;-76
2022/12/27 15:30:50;;;;;;;;;;;;;;;;;;8456816;27;27365;-76
2022/12/27 15:34:50;;;;;;;;;;;;;;;;;;8436322;27;28845;-77
2022/12/27 15:38:50;;;;;;;;;;;;;;;;;;8435391;27;28615;-76
2022/12/27 15:42:50;;;;;;;;;;;;;;;;;;8448052;27;28325;-76
2022/12/27 15:46:50;;;;;;;;;;;;;;;;;;8450280;27;27225;-76
2022/12/27 15:50:51;;;;;;;;;;;;;;;;;;8433883;27;28821;-76
2022/12/27 15:54:51;;;;;;;;;;;;;;;;;;8437375;27;28240;-76
2022/12/27 15:58:51;;;;;;;;;;;;;;;;;;8432761;27;28607;-76
2022/12/27 16:02:51;;;;;;;;;;;;;;;;;;8435680;27;28230;-76
2022/12/27 16:06:51;;;;;;;;;;;;;;;;;;8456014;27;27297;-77
2022/12/27 16:10:51;;;;;;;;;;;;;;;;;;8457088;27;27291;-76
2022/12/27 16:14:51;;;;;;;;;;;;;;;;;;8441527;27;28217;-76
2022/12/27 16:18:51;;;;;;;;;;;;;;;;;;8433346;27;28246;-76
2022/12/27 16:22:51;;;;;;;;;;;;;;;;;;8431441;27;28277;-76
2022/12/27 16:26:51;;;;;;;;;;;;;;;;;;8452707;27;27290;-77
2022/12/27 16:30:52;;;;;;;;;;;;;;;;;;8426668;27;28949;-76
2022/12/27 16:34:54;;;;;;;;;;;;;;;;;;8432217;27;29566;-76
2022/12/27 16:38:54;;;;;;;;;;;;;;;;;;8433665;27;30932;-75
2022/12/27 16:42:54;;;;;;;;;;;;;;;;;;8444532;27;27694;-77
2022/12/27 16:46:54;;;;;;;;;;;;;;;;;;8430698;27;28777;-76
2022/12/27 16:50:54;;;;;;;;;;;;;;;;;;8449106;27;27644;-76
2022/12/27 16:54:54;;;;;;;;;;;;;;;;;;8446623;27;27944;-76
2022/12/27 16:58:54;;;;;;;;;;;;;;;;;;8445937;27;27721;-76
2022/12/27 17:02:54;;;;;;;;;;;;;;;;;;8448788;27;27325;-77
2022/12/27 17:06:54;;;;;;;;;;;;;;;;;;8451255;27;27161;-76
2022/12/27 17:10:54;;;;;;;;;;;;;;;;;;8427485;27;28503;-76
2022/12/27 17:14:54;;;;;;;;;;;;;;;;;;8429465;27;28690;-77
2022/12/27 17:18:56;;;;;;;;;;;;;;;;;;8430453;27;28667;-76
2022/12/27 17:22:57;;;;;;;;;;;;;;;;;;8448383;27;27680;-74
2022/12/27 17:26:57;;;;;;;;;;;;;;;;;;8432297;27;28733;-76
2022/12/27 17:30:57;;;;;;;;;;;;;;;;;;8448429;27;28320;-75
2022/12/27 17:34:57;;;;;;;;;;;;;;;;;;8455650;27;27685;-75
2022/12/27 17:38:57;;;;;;;;;;;;;;;;;;8452260;27;27298;-75
2022/12/27 17:47:16;;;;;;;;;;;;;;;;;;8455309;27;27913;-76
2022/12/27 17:51:16;;;;;;;;;;;;;;;;;;8436750;27;28519;-75
2022/12/27 17:59:35;;;;;;;;;;;;;;;;;;8454437;27;27192;-77
2022/12/27 18:03:35;;;;;;;;;;;;;;;;;;8432684;27;28879;-76
2022/12/27 18:07:35;;;;;;;;;;;;;;;;;;8455186;27;28059;-77
2022/12/27 18:11:35;;;;;;;;;;;;;;;;;;8454650;27;27508;-77
2022/12/27 18:15:35;;;;;;;;;;;;;;;;;;8439495;27;30029;-77
2022/12/27 18:19:35;;;;;;;;;;;;;;;;;;8462643;27;27251;-77
2022/12/27 18:23:35;;;;;;;;;;;;;;;;;;8437571;27;28508;-76
2022/12/27 18:27:36;;;;;;;;;;;;;;;;;;8455347;27;27429;-76
2022/12/27 18:31:36;;;;;;;;;;;;;;;;;;8435540;27;28440;-75
2022/12/27 18:35:36;;;;;;;;;;;;;;;;;;8461521;27;27660;-77
2022/12/27 18:39:36;;;;;;;;;;;;;;;;;;8453333;27;27662;-74
2022/12/27 18:43:36;;;;;;;;;;;;;;;;;;8452547;27;27107;-76
2022/12/27 18:47:36;;;;;;;;;;;;;;;;;;8455528;27;27518;-76
2022/12/27 18:51:36;;;;;;;;;;;;;;;;;;8435915;27;28518;-76
2022/12/27 18:55:36;;;;;;;;;;;;;;;;;;8437218;27;29755;-75
2022/12/27 18:59:36;;;;;;;;;;;;;;;;;;8451384;27;27522;-77
2022/12/27 19:03:36;;;;;;;;;;;;;;;;;;8442546;27;29628;-77
2022/12/27 19:07:36;;;;;;;;;;;;;;;;;;8456993;27;27625;-77
2022/12/27 19:11:37;;;;;;;;;;;;;;;;;;8462008;27;27647;-76
2022/12/27 19:15:37;;;;;;;;;;;;;;;;;;8453083;27;27767;-76
2022/12/27 19:19:37;;;;;;;;;;;;;;;;;;8453078;27;27458;-77
2022/12/27 19:23:37;;;;;;;;;;;;;;;;;;8435940;27;28677;-77
2022/12/27 19:27:37;;;;;;;;;;;;;;;;;;8455806;27;27368;-76
2022/12/27 19:31:37;;;;;;;;;;;;;;;;;;8432203;27;28439;-76
2022/12/27 19:35:37;;;;;;;;;;;;;;;;;;8461219;27;27422;-76
2022/12/27 19:39:37;;;;;;;;;;;;;;;;;;8458473;27;27395;-77
2022/12/27 19:43:37;;;;;;;;;;;;;;;;;;8450906;27;27823;-77
2022/12/27 19:47:38;;;;;;;;;;;;;;;;;;8432304;27;28608;-77
2022/12/27 19:51:38;;;;;;;;;;;;;;;;;;8448045;27;27871;-77
2022/12/27 19:55:38;;;;;;;;;;;;;;;;;;8449528;27;28056;-77
2022/12/27 19:59:38;;;;;;;;;;;;;;;;;;8434716;27;28748;-77
2022/12/27 20:03:39;;;;;;;;;;;;;;;;;;8435109;27;28644;-77
2022/12/27 20:07:39;;;;;;;;;;;;;;;;;;8450899;27;27492;-77
2022/12/27 20:11:39;;;;;;;;;;;;;;;;;;8437193;27;28727;-76
2022/12/27 20:15:39;;;;;;;;;;;;;;;;;;8432410;27;28695;-76
2022/12/27 20:19:39;;;;;;;;;;;;;;;;;;8453129;27;27267;-76
2022/12/27 20:23:39;;;;;;;;;;;;;;;;;;8451087;27;27635;-77
2022/12/27 20:27:39;;;;;;;;;;;;;;;;;;8458502;27;27291;-76
2022/12/27 20:31:39;;;;;;;;;;;;;;;;;;8456306;27;27483;-77
2022/12/27 20:35:39;;;;;;;;;;;;;;;;;;8453170;27;27618;-77
2022/12/27 20:39:40;;;;;;;;;;;;;;;;;;8459295;27;27440;-76
2022/12/27 20:43:40;;;;;;;;;;;;;;;;;;8431742;27;30000;-77
2022/12/27 20:47:40;;;;;;;;;;;;;;;;;;8432202;27;28724;-76
2022/12/27 20:51:40;;;;;;;;;;;;;;;;;;8432326;27;28588;-76
2022/12/27 20:55:40;;;;;;;;;;;;;;;;;;8452707;27;27599;-75
2022/12/27 20:59:40;;;;;;;;;;;;;;;;;;8448212;27;27468;-76
2022/12/27 21:03:40;;;;;;;;;;;;;;;;;;8450378;27;27974;-77
2022/12/27 21:07:41;;;;;;;;;;;;;;;;;;8429593;27;28453;-76
2022/12/27 21:11:41;;;;;;;;;;;;;;;;;;8457515;27;27964;-76
2022/12/27 21:15:41;;;;;;;;;;;;;;;;;;8462494;27;28100;-77
2022/12/27 21:19:41;;;;;;;;;;;;;;;;;;8439879;27;28094;-77
2022/12/27 21:23:42;;;;;;;;;;;;;;;;;;8436045;27;29227;-76
2022/12/27 21:27:42;;;;;;;;;;;;;;;;;;8456367;27;27619;-80
2022/12/27 21:31:42;;;;;;;;;;;;;;;;;;8461775;27;27694;-82
2022/12/27 21:35:42;;;;;;;;;;;;;;;;;;8436419;27;28519;-81
2022/12/27 21:39:42;;;;;;;;;;;;;;;;;;8457925;27;27824;-79
2022/12/27 21:43:42;;;;;;;;;;;;;;;;;;8443664;27;28666;-81
2022/12/27 21:47:42;;;;;;;;;;;;;;;;;;8445076;27;28805;-80
2022/12/27 21:51:42;;;;;;;;;;;;;;;;;;8444501;27;28656;-78
2022/12/27 21:55:43;;;;;;;;;;;;;;;;;;8452886;27;27535;-78
2022/12/27 21:59:43;;;;;;;;;;;;;;;;;;8453590;27;27322;-79
2022/12/27 22:03:43;;;;;;;;;;;;;;;;;;8451823;27;27949;-80
2022/12/27 22:07:43;;;;;;;;;;;;;;;;;;8442714;27;28740;-80
2022/12/27 22:11:43;;;;;;;;;;;;;;;;;;8445293;27;28767;-82
2022/12/27 22:15:43;;;;;;;;;;;;;;;;;;8458473;27;28272;-81
2022/12/27 22:19:43;;;;;;;;;;;;;;;;;;8453658;27;28091;-81
2022/12/27 22:23:43;;;;;;;;;;;;;;;;;;8451987;27;27238;-80
2022/12/27 22:27:43;;;;;;;;;;;;;;;;;;8435988;27;28614;-78
2022/12/27 22:31:43;;;;;;;;;;;;;;;;;;8440475;27;28897;-79
2022/12/27 22:35:43;;;;;;;;;;;;;;;;;;8460422;27;27289;-79
2022/12/27 22:39:43;;;;;;;;;;;;;;;;;;8459424;27;27220;-79
2022/12/27 22:43:43;;;;;;;;;;;;;;;;;;8458422;27;27402;-78
2022/12/27 22:47:44;;;;;;;;;;;;;;;;;;8434710;27;28502;-79
2022/12/27 22:51:44;;;;;;;;;;;;;;;;;;8437440;27;28632;-78
2022/12/27 22:55:47;;;;;;;;;;;;;;;;;;8460706;27;28133;-79
2022/12/27 22:59:47;;;;;;;;;;;;;;;;;;8451369;27;28258;-78
2022/12/27 23:03:47;;;;;;;;;;;;;;;;;;8449331;27;27385;-79
2022/12/27 23:07:47;;;;;;;;;;;;;;;;;;8455228;27;27757;-80
2022/12/27 23:11:47;;;;;;;;;;;;;;;;;;8459242;27;27297;-78
2022/12/27 23:15:47;;;;;;;;;;;;;;;;;;8449615;27;27578;-78
2022/12/27 23:19:48;;;;;;;;;;;;;;;;;;8438773;27;28215;-78
2022/12/27 23:23:48;;;;;;;;;;;;;;;;;;8429923;27;29104;-77
2022/12/27 23:27:48;;;;;;;;;;;;;;;;;;8436304;27;28466;-78
2022/12/27 23:31:48;;;;;;;;;;;;;;;;;;8438145;27;28755;-78
2022/12/27 23:35:48;;;;;;;;;;;;;;;;;;8451151;27;28204;-78
2022/12/27 23:39:48;;;;;;;;;;;;;;;;;;8454221;27;27570;-78
2022/12/27 23:43:48;;;;;;;;;;;;;;;;;;8425900;27;29877;-76
2022/12/27 23:47:48;;;;;;;;;;;;;;;;;;8453034;27;28051;-77
2022/12/27 23:51:50;;;;;;;;;;;;;;;;;;8431158;27;28502;-77
2022/12/27 23:55:50;;;;;;;;;;;;;;;;;;8450720;27;27221;-78
2022/12/27 23:59:50;;;;;;;;;;;;;;;;;;8446761;27;28096;-79
